createdAt,value
2022-10-13T00:02:06.833Z,73.36
2022-10-13T00:05:13.593Z,73.21
2022-10-13T00:08:26.230Z,73.04
2022-10-13T00:11:33.333Z,73.12
2022-10-13T00:14:39.778Z,73.24
2022-10-13T00:17:48.619Z,73.03
2022-10-13T00:20:55.081Z,73.24
2022-10-13T00:24:00.868Z,72.91
2022-10-13T00:27:08.392Z,73.27
2022-10-13T00:30:14.691Z,73.43
2022-10-13T00:33:23.890Z,73.49
2022-10-13T00:36:29.495Z,73.29
2022-10-13T00:39:36.104Z,73.16
2022-10-13T00:42:44.606Z,73.54
2022-10-13T00:45:54.138Z,73.23
2022-10-13T00:49:06.659Z,72.93
2022-10-13T00:52:13.162Z,73.09
2022-10-13T00:55:24.381Z,73.16
2022-10-13T00:58:33.870Z,73.12
2022-10-13T01:01:39.527Z,73.19
2022-10-13T01:04:50.845Z,73.12
2022-10-13T01:07:57.836Z,73.29
2022-10-13T01:11:19.368Z,73.06
2022-10-13T01:14:33.129Z,73.41
2022-10-13T01:17:48.239Z,73.41
2022-10-13T01:21:10.186Z,74.03
2022-10-13T01:24:46.739Z,73.90
2022-10-13T01:28:11.839Z,73.71
2022-10-13T01:31:27.089Z,73.14
2022-10-13T01:34:38.225Z,73.27
2022-10-13T01:37:51.923Z,73.54
2022-10-13T01:41:06.871Z,73.87
2022-10-13T01:44:18.394Z,73.57
2022-10-13T01:47:37.399Z,73.88
2022-10-13T01:50:44.735Z,73.76
2022-10-13T01:53:51.824Z,73.49
2022-10-13T01:56:59.546Z,73.87
2022-10-13T02:00:11.143Z,73.68
2022-10-13T02:03:29.165Z,74.08
2022-10-13T02:06:39.917Z,74.16
2022-10-13T02:09:52.803Z,74.24
2022-10-13T02:13:03.583Z,74.31
2022-10-13T02:16:10.931Z,74.29
2022-10-13T02:19:21.444Z,74.06
2022-10-13T02:22:34.634Z,74.03
2022-10-13T02:25:43.478Z,74.46
2022-10-13T02:28:50.181Z,73.87
2022-10-13T02:31:56.735Z,74.42
2022-10-13T02:35:06.349Z,74.26
2022-10-13T02:38:12.021Z,74.62
2022-10-13T02:41:18.486Z,74.08
2022-10-13T02:44:25.061Z,74.22
2022-10-13T02:47:31.924Z,74.51
2022-10-13T02:50:42.422Z,74.53
2022-10-13T02:53:49.125Z,74.04
2022-10-13T02:56:54.710Z,74.53
2022-10-13T03:00:01.159Z,74.63
2022-10-13T03:03:07.909Z,74.81
2022-10-13T03:06:17.596Z,74.58
2022-10-13T03:09:23.216Z,74.39
2022-10-13T03:12:29.963Z,74.27
2022-10-13T03:15:35.570Z,74.80
2022-10-13T03:18:45.877Z,74.01
2022-10-13T03:21:54.540Z,74.32
2022-10-13T03:25:01.016Z,74.40
2022-10-13T03:28:07.873Z,74.32
2022-10-13T03:31:16.272Z,74.60
2022-10-13T03:34:22.349Z,74.62
2022-10-13T03:37:32.370Z,74.73
2022-10-13T03:40:39.322Z,74.93
2022-10-13T03:43:47.187Z,74.58
2022-10-13T03:46:53.092Z,74.68
2022-10-13T03:50:00.166Z,74.17
2022-10-13T03:53:10.393Z,74.17
2022-10-13T03:56:19.994Z,74.68
2022-10-13T03:59:36.421Z,74.57
2022-10-13T04:02:43.553Z,74.03
2022-10-13T04:05:49.450Z,74.46
2022-10-13T04:08:59.592Z,74.62
2022-10-13T04:12:07.104Z,74.45
2022-10-13T04:15:14.186Z,74.54
2022-10-13T04:18:19.792Z,74.67
2022-10-13T04:21:27.125Z,74.98
2022-10-13T04:24:35.536Z,74.86
2022-10-13T04:27:42.277Z,74.88
2022-10-13T04:30:49.599Z,74.42
2022-10-13T04:33:56.530Z,74.51
2022-10-13T04:37:03.682Z,74.15
2022-10-13T04:40:13.726Z,74.88
2022-10-13T04:43:19.567Z,74.96
2022-10-13T04:46:28.485Z,75.16
2022-10-13T04:49:35.161Z,75.31
2022-10-13T04:52:41.671Z,74.58
2022-10-13T04:55:50.164Z,75.58
2022-10-13T04:58:56.985Z,74.73
2022-10-13T05:02:03.880Z,75.25
2022-10-13T05:05:11.742Z,74.95
2022-10-13T05:08:17.410Z,75.47
2022-10-13T05:11:28.529Z,74.71
2022-10-13T05:14:35.535Z,74.67
2022-10-13T05:17:44.388Z,74.61
2022-10-13T05:20:50.106Z,75.14
2022-10-13T05:23:57.789Z,75.22
2022-10-13T05:27:07.089Z,74.93
2022-10-13T05:30:14.856Z,75.11
2022-10-13T05:33:20.473Z,75.02
2022-10-13T05:36:30.313Z,75.16
2022-10-13T05:39:36.068Z,75.04
2022-10-13T05:42:45.674Z,75.17
2022-10-13T05:45:52.105Z,74.92
2022-10-13T05:49:01.094Z,74.96
2022-10-13T05:52:11.695Z,74.99
2022-10-13T05:55:20.953Z,75.06
2022-10-13T05:58:29.403Z,75.04
2022-10-13T06:01:38.804Z,74.85
2022-10-13T06:04:47.938Z,74.90
2022-10-13T06:07:55.206Z,75.05
2022-10-13T06:11:01.287Z,74.33
2022-10-13T06:14:12.199Z,74.43
2022-10-13T06:17:17.827Z,74.15
2022-10-13T06:20:24.577Z,74.37
2022-10-13T06:23:30.233Z,74.19
2022-10-13T06:26:36.718Z,73.96
2022-10-13T06:29:45.084Z,73.79
2022-10-13T06:32:51.611Z,73.58
2022-10-13T06:35:57.284Z,73.92
2022-10-13T06:39:04.191Z,73.76
2022-10-13T06:42:09.791Z,73.46
2022-10-13T06:45:26.138Z,73.81
2022-10-13T06:48:33.115Z,74.06
2022-10-13T06:51:39.796Z,74.00
2022-10-13T06:54:45.599Z,73.57
2022-10-13T06:57:52.134Z,74.04
2022-10-13T07:01:01.072Z,74.12
2022-10-13T07:04:09.448Z,73.88
2022-10-13T07:07:15.268Z,73.86
2022-10-13T07:10:22.066Z,73.55
2022-10-13T07:13:30.444Z,73.21
2022-10-13T07:16:42.247Z,73.33
2022-10-13T07:19:48.880Z,73.24
2022-10-13T07:22:57.210Z,73.44
2022-10-13T07:26:04.954Z,73.28
2022-10-13T07:29:12.029Z,73.19
2022-10-13T07:32:20.642Z,72.88
2022-10-13T07:35:30.745Z,73.06
2022-10-13T07:38:36.781Z,72.71
2022-10-13T07:41:46.417Z,72.95
2022-10-13T07:44:55.769Z,72.97
2022-10-13T07:48:06.359Z,73.01
2022-10-13T07:51:14.094Z,72.83
2022-10-13T07:54:23.791Z,72.74
2022-10-13T07:57:32.910Z,72.61
2022-10-13T08:00:39.400Z,72.32
2022-10-13T08:03:50.333Z,72.11
2022-10-13T08:06:58.528Z,72.27
2022-10-13T08:10:04.215Z,71.97
2022-10-13T08:13:10.845Z,71.83
2022-10-13T08:16:16.726Z,71.86
2022-10-13T08:19:26.781Z,71.55
2022-10-13T08:22:34.428Z,71.39
2022-10-13T08:25:41.916Z,71.13
2022-10-13T08:29:02.933Z,71.08
2022-10-13T08:32:09.794Z,70.78
2022-10-13T08:35:18.252Z,70.47
2022-10-13T08:38:24.775Z,70.34
2022-10-13T08:41:34.135Z,70.32
2022-10-13T08:48:17.362Z,69.56
2022-10-13T08:51:26.834Z,69.67
2022-10-13T08:54:32.575Z,69.40
2022-10-13T08:57:39.098Z,69.05
2022-10-13T09:00:45.308Z,68.88
2022-10-13T09:03:54.537Z,69.11
2022-10-13T09:07:09.530Z,68.74
2022-10-13T09:10:16.978Z,68.74
2022-10-13T09:13:30.407Z,68.66
2022-10-13T09:16:40.528Z,68.19
2022-10-13T09:19:59.972Z,67.96
2022-10-13T09:23:21.561Z,67.69
2022-10-13T09:26:28.171Z,67.50
2022-10-13T09:29:34.898Z,67.45
2022-10-13T09:32:40.956Z,67.31
2022-10-13T09:35:49.657Z,67.09
2022-10-13T09:39:20.247Z,67.11
2022-10-13T09:42:30.280Z,66.75
2022-10-13T09:45:45.747Z,66.80
2022-10-13T09:48:54.366Z,66.39
2022-10-13T09:52:06.604Z,66.09
2022-10-13T09:55:35.294Z,65.95
2022-10-13T09:58:47.689Z,65.67
2022-10-13T10:01:58.786Z,65.33
2022-10-13T10:05:14.277Z,64.52
2022-10-13T10:08:33.376Z,64.23
2022-10-13T10:11:46.395Z,64.07
2022-10-13T10:14:53.179Z,63.95
2022-10-13T10:18:04.290Z,63.71
2022-10-13T10:21:15.567Z,63.97
2022-10-13T10:24:28.934Z,63.55
2022-10-13T10:27:44.109Z,63.56
2022-10-13T10:30:58.412Z,63.26
2022-10-13T10:34:23.221Z,63.01
2022-10-13T10:37:47.686Z,62.73
2022-10-13T10:41:04.332Z,62.83
2022-10-13T10:44:18.054Z,62.71
2022-10-13T10:47:29.157Z,62.65
2022-10-13T10:50:37.903Z,62.51
2022-10-13T10:53:58.706Z,62.23
2022-10-13T10:57:12.285Z,62.09
2022-10-13T11:00:24.096Z,61.87
2022-10-13T11:03:40.775Z,61.65
2022-10-13T11:06:47.694Z,61.61
2022-10-13T11:10:21.622Z,61.37
2022-10-13T11:13:29.301Z,61.66
2022-10-13T11:16:42.254Z,61.49
2022-10-13T11:19:52.639Z,61.46
2022-10-13T11:23:35.089Z,61.13
2022-10-13T11:26:46.513Z,61.33
2022-10-13T11:29:59.403Z,61.12
2022-10-13T11:33:37.752Z,60.90
2022-10-13T11:36:58.313Z,60.94
2022-10-13T11:40:19.426Z,61.07
2022-10-13T11:43:37.475Z,60.45
2022-10-13T11:47:04.275Z,59.95
2022-10-13T11:50:21.917Z,59.65
2022-10-13T11:53:31.016Z,58.94
2022-10-13T11:56:39.752Z,58.23
2022-10-13T11:59:51.617Z,57.62
2022-10-13T12:03:06.296Z,56.79
2022-10-13T12:06:33.431Z,56.31
2022-10-13T12:09:45.117Z,57.27
2022-10-13T12:12:52.826Z,57.00
2022-10-13T12:16:05.366Z,56.40
2022-10-13T12:19:12.828Z,56.82
2022-10-13T12:22:21.449Z,57.16
2022-10-13T12:25:31.322Z,57.05
2022-10-13T12:28:51.541Z,54.81
2022-10-13T12:31:58.814Z,56.17
2022-10-13T12:35:18.983Z,56.01
2022-10-13T12:38:28.472Z,55.76
2022-10-13T12:41:36.506Z,55.75
2022-10-13T12:44:43.990Z,55.72
2022-10-13T12:47:52.042Z,55.86
2022-10-13T12:50:58.586Z,55.98
2022-10-13T12:54:10.466Z,56.02
2022-10-13T12:57:21.312Z,56.03
2022-10-13T13:00:29.944Z,55.63
2022-10-13T13:03:38.999Z,55.44
2022-10-13T13:06:56.604Z,56.23
2022-10-13T13:10:17.927Z,56.56
2022-10-13T13:13:26.312Z,56.15
2022-10-13T13:16:33.156Z,57.26
2022-10-13T13:19:39.543Z,57.19
2022-10-13T13:22:48.428Z,57.15
2022-10-13T13:26:08.145Z,57.65
2022-10-13T13:29:14.596Z,57.67
2022-10-13T13:32:25.552Z,57.91
2022-10-13T13:35:32.094Z,58.00
2022-10-13T13:38:37.801Z,57.93
2022-10-13T13:41:48.069Z,58.07
2022-10-13T13:44:53.868Z,58.36
2022-10-13T13:48:01.013Z,58.60
2022-10-13T13:51:07.487Z,59.08
2022-10-13T13:54:13.976Z,59.01
2022-10-13T13:57:23.223Z,59.32
2022-10-13T14:00:29.841Z,59.27
2022-10-13T14:03:35.834Z,58.59
2022-10-13T14:06:44.878Z,58.99
2022-10-13T14:09:50.510Z,59.36
2022-10-13T14:13:01.173Z,58.93
2022-10-13T14:16:08.310Z,59.03
2022-10-13T14:19:15.036Z,59.00
2022-10-13T14:22:21.401Z,59.13
2022-10-13T14:25:28.095Z,59.12
2022-10-13T14:28:36.713Z,59.20
2022-10-13T14:31:43.508Z,59.61
2022-10-13T14:34:49.074Z,59.37
2022-10-13T14:37:55.588Z,59.34
2022-10-13T14:41:03.228Z,59.59
2022-10-13T14:44:14.378Z,59.55
2022-10-13T14:47:24.146Z,59.73
2022-10-13T14:50:30.933Z,59.68
2022-10-13T14:53:37.953Z,59.87
2022-10-13T14:56:44.797Z,60.03
2022-10-13T14:59:54.955Z,60.14
2022-10-13T15:03:06.571Z,60.05
2022-10-13T15:06:16.271Z,59.89
2022-10-13T15:09:29.099Z,60.08
2022-10-13T15:12:44.516Z,60.24
2022-10-13T15:15:54.004Z,60.17
2022-10-13T15:19:00.459Z,60.26
2022-10-13T15:22:09.108Z,60.17
2022-10-13T15:25:14.739Z,60.48
2022-10-13T15:28:21.792Z,60.92
2022-10-13T15:31:31.128Z,60.89
2022-10-13T15:34:37.642Z,61.25
2022-10-13T15:37:43.284Z,61.29
2022-10-13T15:40:50.439Z,61.34
2022-10-13T15:43:56.036Z,61.46
2022-10-13T15:47:08.274Z,61.60
2022-10-13T15:50:15.250Z,61.90
2022-10-13T15:53:21.906Z,62.15
2022-10-13T15:56:27.817Z,62.42
2022-10-13T15:59:34.512Z,62.65
2022-10-13T16:02:43.364Z,62.99
2022-10-13T16:05:50.248Z,63.42
2022-10-13T16:08:56.338Z,63.53
2022-10-13T16:12:03.287Z,63.77
2022-10-13T16:15:10.550Z,64.08
2022-10-13T16:18:19.873Z,64.32
2022-10-13T16:21:27.694Z,64.54
2022-10-13T16:24:34.353Z,64.71
2022-10-13T16:27:44.477Z,65.01
2022-10-13T16:30:51.245Z,65.21
2022-10-13T16:33:59.623Z,65.43
2022-10-13T16:37:07.111Z,65.72
2022-10-13T16:40:13.703Z,65.83
2022-10-13T16:43:20.103Z,66.06
2022-10-13T16:46:33.266Z,66.43
2022-10-13T16:49:42.514Z,66.55
2022-10-13T16:52:49.267Z,66.96
2022-10-13T16:55:55.708Z,66.95
2022-10-13T16:59:03.322Z,67.04
2022-10-13T17:02:10.075Z,67.42
2022-10-13T17:05:20.699Z,67.25
2022-10-13T17:08:27.344Z,67.27
2022-10-13T17:11:34.926Z,67.36
2022-10-13T17:14:44.656Z,67.39
2022-10-13T17:17:50.228Z,67.53
2022-10-13T17:21:01.099Z,67.55
2022-10-13T17:24:07.769Z,67.66
2022-10-13T17:27:14.587Z,67.62
2022-10-13T17:30:20.325Z,67.77
2022-10-13T17:33:26.817Z,67.93
2022-10-13T17:36:35.546Z,67.84
2022-10-13T17:39:48.069Z,67.59
2022-10-13T17:42:53.741Z,67.56
2022-10-13T17:46:34.349Z,67.15
2022-10-13T17:49:36.437Z,67.16
2022-10-13T17:52:45.996Z,66.98
2022-10-13T17:55:51.659Z,66.84
2022-10-13T17:58:59.748Z,66.72
2022-10-13T18:02:07.333Z,66.74
2022-10-13T18:05:14.039Z,66.82
2022-10-13T18:08:22.986Z,66.86
2022-10-13T18:11:29.808Z,66.84
2022-10-13T18:14:35.515Z,66.90
2022-10-13T18:17:42.628Z,66.99
2022-10-13T18:20:48.735Z,67.38
2022-10-13T18:23:59.079Z,67.29
2022-10-13T18:27:06.565Z,67.53
2022-10-13T18:30:21.363Z,67.71
2022-10-13T18:33:27.835Z,67.54
2022-10-13T18:36:35.975Z,67.70
2022-10-13T18:39:49.951Z,67.90
2022-10-13T18:42:56.357Z,68.04
2022-10-13T18:46:03.289Z,67.95
2022-10-13T18:49:12.527Z,67.88
2022-10-13T18:52:20.695Z,68.14
2022-10-13T18:55:30.013Z,67.97
2022-10-13T18:58:35.812Z,68.06
2022-10-13T19:01:43.083Z,67.96
2022-10-13T19:04:51.426Z,67.98
2022-10-13T19:07:58.205Z,68.00
2022-10-13T19:11:13.458Z,68.08
2022-10-13T19:14:20.075Z,67.79
2022-10-13T19:17:25.891Z,67.91
2022-10-13T19:20:32.725Z,68.00
2022-10-13T19:23:43.616Z,67.95
2022-10-13T19:27:01.205Z,68.07
2022-10-13T19:30:09.065Z,68.52
2022-10-13T19:33:16.542Z,68.58
2022-10-13T19:36:30.419Z,68.72
2022-10-13T19:39:39.970Z,68.94
2022-10-13T19:42:48.445Z,68.62
2022-10-13T19:45:59.634Z,68.61
2022-10-13T19:49:08.033Z,68.79
2022-10-13T19:52:15.029Z,68.80
2022-10-13T19:55:20.784Z,68.59
2022-10-13T19:58:30.203Z,68.58
2022-10-13T20:01:39.983Z,68.82
2022-10-13T20:04:52.230Z,68.85
2022-10-13T20:07:58.259Z,69.08
2022-10-13T20:11:09.112Z,69.30
2022-10-13T20:14:18.208Z,69.03
2022-10-13T20:17:24.724Z,69.35
2022-10-13T20:20:30.961Z,69.53
2022-10-13T20:23:38.058Z,69.58
2022-10-13T20:26:43.799Z,69.62
2022-10-13T20:29:54.007Z,69.59
2022-10-13T20:33:00.258Z,69.81
2022-10-13T20:36:11.955Z,70.04
2022-10-13T20:39:17.611Z,69.94
2022-10-13T20:42:24.066Z,70.03
2022-10-13T20:45:32.429Z,69.98
2022-10-13T20:49:08.658Z,70.13
2022-10-13T20:52:08.139Z,70.01
2022-10-13T20:55:14.669Z,70.52
2022-10-13T20:58:20.264Z,70.44
2022-10-13T21:01:29.765Z,70.27
2022-10-13T21:04:35.488Z,70.58
2022-10-13T21:07:42.471Z,70.86
2022-10-13T21:10:49.048Z,70.95
2022-10-13T21:13:58.130Z,71.07
2022-10-13T21:17:08.680Z,70.95
2022-10-13T21:20:15.137Z,70.86
2022-10-13T21:23:20.686Z,70.74
2022-10-13T21:26:31.081Z,70.86
2022-10-13T21:29:36.645Z,70.72
2022-10-13T21:32:45.960Z,70.91
2022-10-13T21:35:51.516Z,71.00
2022-10-13T21:39:03.612Z,71.10
2022-10-13T21:42:09.227Z,70.85
2022-10-13T21:45:15.715Z,70.92
2022-10-13T21:48:24.389Z,70.83
2022-10-13T21:51:32.601Z,71.12
2022-10-13T21:54:38.180Z,70.81
2022-10-13T21:57:44.630Z,70.93
2022-10-13T22:00:50.474Z,70.72
2022-10-13T22:04:03.846Z,70.92
2022-10-13T22:07:09.482Z,71.11
2022-10-13T22:10:16.119Z,71.31
2022-10-13T22:13:22.186Z,71.41
2022-10-13T22:16:31.345Z,71.17
2022-10-13T22:19:39.762Z,71.18
2022-10-13T22:22:46.485Z,71.47
2022-10-13T22:25:54.364Z,71.29
2022-10-13T22:29:03.626Z,71.17
2022-10-13T22:32:09.484Z,71.40
2022-10-13T22:35:18.820Z,71.19
2022-10-13T22:38:24.815Z,71.09
2022-10-13T22:41:31.799Z,71.47
2022-10-13T22:44:37.363Z,71.33
2022-10-13T22:47:43.848Z,71.48
2022-10-13T22:50:52.447Z,71.40
2022-10-13T22:54:00.225Z,71.42
2022-10-13T22:57:07.854Z,71.36
2022-10-13T23:00:15.332Z,71.65
2022-10-13T23:03:22.519Z,71.74
2022-10-13T23:06:34.820Z,71.77
2022-10-13T23:09:40.719Z,71.85
2022-10-13T23:12:47.250Z,71.62
2022-10-13T23:15:52.919Z,71.79
2022-10-13T23:19:04.331Z,72.01
2022-10-13T23:22:13.238Z,72.20
2022-10-13T23:25:19.774Z,72.42
2022-10-13T23:28:25.429Z,72.56
2022-10-13T23:31:32.154Z,72.52
2022-10-13T23:34:37.735Z,72.45
2022-10-13T23:37:47.115Z,73.08
2022-10-13T23:40:52.873Z,73.24
2022-10-13T23:43:59.983Z,73.50
2022-10-13T23:47:08.247Z,73.46
2022-10-13T23:50:14.736Z,73.48
2022-10-13T23:53:23.471Z,73.33
2022-10-13T23:56:30.221Z,73.48
2022-10-13T23:59:36.557Z,73.53
